Time;durP1;ratioP1;P1;durP2;ratioP2;P2;SDS_P1;SDS_P2;PMS_P1;PMS_P2;Temp;Humidity;BMP_temperature;BMP_pressure;BME280_temperature;BME280_humidity;BME280_pressure;Samples;Min_cycle;Max_cycle;Signal;HPM_P1;HPM_P2
2022/11/27 00:01:09;;;;;;;293.65;101.72;;;5.90;99.90;;;;;;5074192;28;20371;-76
2022/11/27 00:03:35;;;;;;;303.92;105.22;;;5.90;99.90;;;;;;5073694;28;20051;-76
2022/11/27 00:06:01;;;;;;;265.40;94.07;;;5.90;99.90;;;;;;5073517;28;20435;-77
2022/11/27 00:08:27;;;;;;;311.58;103.72;;;5.90;99.90;;;;;;5073788;28;20078;-76
2022/11/27 00:10:52;;;;;;;273.83;92.80;;;5.90;99.90;;;;;;5073820;28;20028;-77
2022/11/27 00:13:18;;;;;;;270.90;93.30;;;5.90;99.90;;;;;;5073914;28;20074;-76
2022/11/27 00:15:44;;;;;;;268.65;96.50;;;5.90;99.90;;;;;;5073788;28;20044;-77
2022/11/27 00:18:10;;;;;;;282.92;96.75;;;5.80;99.90;;;;;;5073914;28;20029;-76
2022/11/27 00:20:36;;;;;;;258.80;93.22;;;5.80;99.90;;;;;;5072621;28;20111;-77
2022/11/27 00:23:01;;;;;;;273.27;94.93;;;5.80;99.90;;;;;;5074116;28;20029;-76
2022/11/27 00:25:27;;;;;;;326.10;134.02;;;5.90;99.90;;;;;;5074252;28;20024;-76
2022/11/27 00:27:53;;;;;;;338.02;144.18;;;5.90;99.90;;;;;;5073489;28;20070;-75
2022/11/27 00:30:19;;;;;;;333.17;134.05;;;5.90;99.90;;;;;;5074185;28;20052;-77
2022/11/27 00:32:44;;;;;;;326.55;134.05;;;5.90;99.90;;;;;;5072890;28;20088;-76
2022/11/27 00:35:10;;;;;;;311.80;130.60;;;5.90;99.90;;;;;;5073465;28;20056;-76
2022/11/27 00:37:36;;;;;;;316.40;126.22;;;5.90;99.90;;;;;;5073888;28;20024;-77
2022/11/27 00:40:02;;;;;;;317.63;127.40;;;5.90;99.90;;;;;;5074128;28;20158;-76
2022/11/27 00:42:28;;;;;;;351.55;140.48;;;5.90;99.90;;;;;;5072411;28;20024;-76
2022/11/27 00:44:53;;;;;;;321.70;129.25;;;5.90;99.90;;;;;;5073486;28;20062;-76
2022/11/27 00:47:19;;;;;;;303.77;116.78;;;6.00;99.90;;;;;;5072805;28;20107;-76
2022/11/27 00:49:45;;;;;;;289.80;117.95;;;6.00;99.90;;;;;;5073038;28;20017;-76
2022/11/27 00:52:11;;;;;;;302.42;125.72;;;6.00;99.90;;;;;;5072763;28;20090;-77
2022/11/27 00:54:37;;;;;;;308.23;124.93;;;6.00;99.90;;;;;;5072552;28;20021;-76
2022/11/27 00:57:04;;;;;;;323.25;129.43;;;6.00;99.90;;;;;;5072887;28;20104;-77
2022/11/27 00:59:30;;;;;;;297.88;124.05;;;6.00;99.90;;;;;;5071728;28;20163;-76
2022/11/27 01:01:55;;;;;;;306.92;120.82;;;6.00;99.90;;;;;;5073166;28;20412;-76
2022/11/27 01:04:22;;;;;;;313.17;118.28;;;6.00;99.90;;;;;;5073296;28;20528;-76
2022/11/27 01:06:47;;;;;;;318.48;122.57;;;6.00;99.90;;;;;;5072737;28;20020;-76
2022/11/27 01:09:14;;;;;;;292.13;120.47;;;6.00;99.90;;;;;;5073099;28;20040;-75
2022/11/27 01:11:40;;;;;;;336.67;134.27;;;6.00;99.90;;;;;;5073024;28;20035;-76
2022/11/27 01:14:12;;;;;;;284.75;119.57;;;6.00;99.90;;;;;;5071582;28;20074;-77
2022/11/27 01:16:37;;;;;;;295.03;132.70;;;6.00;99.90;;;;;;5073012;28;20029;-77
2022/11/27 01:19:03;;;;;;;297.20;122.07;;;6.00;99.90;;;;;;5073054;28;20483;-76
2022/11/27 01:21:32;;;;;;;285.27;119.22;;;5.90;99.90;;;;;;5073332;28;20027;-75
2022/11/27 01:23:58;;;;;;;290.85;123.13;;;5.90;99.90;;;;;;5072537;28;20104;-76
2022/11/27 01:26:25;;;;;;;301.40;127.18;;;6.00;99.90;;;;;;5073827;28;20024;-77
2022/11/27 01:28:55;;;;;;;301.80;125.35;;;6.00;99.90;;;;;;5072760;28;20456;-76
2022/11/27 01:31:27;;;;;;;300.23;125.90;;;6.00;99.90;;;;;;5072906;28;20028;-76
2022/11/27 01:33:58;;;;;;;307.50;128.88;;;6.00;99.90;;;;;;5072498;28;20062;-76
2022/11/27 01:36:25;;;;;;;296.42;130.55;;;6.00;99.90;;;;;;5072600;28;20048;-76
2022/11/27 01:38:51;;;;;;;386.35;155.80;;;6.00;99.90;;;;;;5072321;28;20033;-75
2022/11/27 01:41:30;;;;;;;318.13;129.25;;;6.00;99.90;;;;;;5072894;28;20527;-76
2022/11/27 01:44:01;;;;;;;282.70;117.93;;;5.90;99.90;;;;;;5073998;28;20025;-75
2022/11/27 01:46:41;;;;;;;278.08;116.78;;;5.90;99.90;;;;;;5076448;28;20031;-76
2022/11/27 01:49:10;;;;;;;275.00;110.53;;;5.90;99.90;;;;;;5076748;28;20505;-75
2022/11/27 01:51:45;;;;;;;299.23;117.57;;;5.90;99.90;;;;;;5076354;28;20036;-76
2022/11/27 01:54:13;;;;;;;281.42;113.32;;;5.90;99.90;;;;;;5076803;28;20356;-77
2022/11/27 01:56:42;;;;;;;281.02;116.00;;;5.80;99.90;;;;;;5076800;28;20062;-77
2022/11/27 01:59:07;;;;;;;292.55;116.65;;;5.80;99.90;;;;;;5076693;28;20027;-76
2022/11/27 02:01:33;;;;;;;281.40;115.45;;;5.70;99.90;;;;;;5076825;28;20021;-78
2022/11/27 02:04:01;;;;;;;292.85;119.28;;;5.80;99.90;;;;;;5076478;28;20100;-76
2022/11/27 02:06:27;;;;;;;283.92;119.80;;;5.80;99.90;;;;;;5076481;28;20093;-76
2022/11/27 02:08:55;;;;;;;284.92;119.60;;;5.80;99.90;;;;;;5076466;28;20059;-77
2022/11/27 02:11:40;;;;;;;289.67;120.10;;;5.80;99.90;;;;;;5076320;28;20040;-75
2022/11/27 02:14:10;;;;;;;286.08;123.32;;;5.80;99.90;;;;;;5076583;28;20024;-76
2022/11/27 02:16:47;;;;;;;304.08;127.35;;;5.90;99.90;;;;;;5076547;28;20090;-76
2022/11/27 02:19:15;;;;;;;320.27;131.05;;;5.90;99.90;;;;;;5076190;28;20029;-76
2022/11/27 02:21:51;;;;;;;426.38;198.35;;;5.90;99.90;;;;;;5076125;28;20031;-76
2022/11/27 02:24:47;;;;;;;450.50;211.90;;;5.90;99.90;;;;;;5076067;28;20027;-78
2022/11/27 02:27:50;;;;;;;348.10;148.57;;;5.90;99.90;;;;;;5076040;28;20027;-77
2022/11/27 02:30:16;;;;;;;333.75;139.55;;;5.90;99.90;;;;;;5076184;28;20020;-78
2022/11/27 02:32:58;;;;;;;374.45;160.68;;;5.90;99.90;;;;;;5075176;28;20028;-77
2022/11/27 02:35:31;;;;;;;298.60;117.60;;;5.90;99.90;;;;;;5075678;28;20463;-77
2022/11/27 02:38:06;;;;;;;292.02;123.95;;;5.80;99.90;;;;;;5075470;28;20029;-76
2022/11/27 02:40:41;;;;;;;285.02;119.97;;;5.80;99.90;;;;;;5075168;28;20029;-77
2022/11/27 02:43:37;;;;;;;291.13;116.13;;;5.90;99.90;;;;;;5075530;28;20016;-78
2022/11/27 02:46:07;;;;;;;301.38;117.90;;;5.90;99.90;;;;;;5052966;28;20108;-76
2022/11/27 02:48:37;;;;;;;285.98;114.18;;;5.90;99.90;;;;;;5052633;28;20111;-77
2022/11/27 02:51:04;;;;;;;304.35;114.95;;;5.80;99.90;;;;;;5052801;28;20029;-76
2022/11/27 02:53:36;;;;;;;301.10;116.57;;;5.80;99.90;;;;;;5052735;28;20031;-77
2022/11/27 02:56:05;;;;;;;;;;;5.80;99.90;;;;;;5051995;28;20036;-77
2022/11/27 02:58:31;;;;;;;322.92;121.35;;;5.80;99.90;;;;;;5052515;28;20007;-76
2022/11/27 03:00:58;;;;;;;324.35;128.77;;;5.80;99.90;;;;;;5051895;28;20040;-76
2022/11/27 03:03:31;;;;;;;341.23;127.72;;;5.80;99.90;;;;;;5052744;28;20090;-76
2022/11/27 03:06:03;;;;;;;316.73;127.13;;;5.80;99.90;;;;;;5052544;28;20049;-77
2022/11/27 03:08:34;;;;;;;323.92;130.77;;;5.80;99.90;;;;;;5052327;28;20055;-78
2022/11/27 03:11:06;;;;;;;327.40;131.98;;;5.70;99.90;;;;;;5052210;28;20025;-76
2022/11/27 03:13:37;;;;;;;337.80;133.00;;;5.70;99.90;;;;;;5052183;28;20037;-77
2022/11/27 03:16:15;;;;;;;335.63;133.77;;;5.70;99.90;;;;;;5035406;28;20033;-77
2022/11/27 03:18:53;;;;;;;341.35;140.00;;;5.70;99.90;;;;;;5052232;28;20365;-76
2022/11/27 03:21:26;;;;;;;348.60;140.00;;;5.70;99.90;;;;;;5052173;28;20025;-77
2022/11/27 03:23:52;;;;;;;345.92;141.75;;;5.70;99.90;;;;;;5068638;28;20025;-77
2022/11/27 03:26:18;;;;;;;362.33;144.40;;;5.70;99.90;;;;;;5074171;28;20351;-76
2022/11/27 03:28:44;;;;;;;344.40;141.20;;;5.70;99.90;;;;;;5074146;28;20482;-75
2022/11/27 03:31:11;;;;;;;343.58;143.27;;;5.70;99.90;;;;;;5074523;28;20021;-76
2022/11/27 03:33:37;;;;;;;369.50;155.20;;;5.70;99.90;;;;;;5074149;28;20021;-76
2022/11/27 03:36:14;;;;;;;395.80;176.48;;;5.70;99.90;;;;;;5072566;28;20021;-77
2022/11/27 03:38:41;;;;;;;343.33;145.93;;;5.80;99.90;;;;;;5065593;28;20082;-76
2022/11/27 03:41:25;;;;;;;350.15;142.75;;;5.80;99.90;;;;;;5074040;28;20099;-76
2022/11/27 03:44:17;;;;;;;343.55;138.60;;;5.80;99.90;;;;;;5074273;28;20012;-77
2022/11/27 03:47:08;;;;;;;333.77;134.98;;;5.80;99.90;;;;;;5073738;28;20043;-77
2022/11/27 03:50:07;;;;;;;345.48;136.95;;;5.80;99.90;;;;;;5071893;28;20367;-78
2022/11/27 03:52:50;;;;;;;326.20;136.27;;;5.80;99.90;;;;;;5070642;28;20458;-77
2022/11/27 03:55:20;;;;;;;345.85;137.07;;;5.80;99.90;;;;;;5073927;28;20086;-77
2022/11/27 03:58:04;;;;;;;332.75;141.32;;;5.90;99.90;;;;;;5072247;28;20363;-76
2022/11/27 04:00:35;;;;;;;332.88;136.63;;;5.90;99.90;;;;;;5073674;28;20044;-77
2022/11/27 04:03:02;;;;;;;356.00;148.73;;;5.90;99.90;;;;;;5073705;28;20440;-78
2022/11/27 04:05:28;;;;;;;365.38;151.48;;;5.90;99.90;;;;;;5073395;28;20452;-77
2022/11/27 04:07:54;;;;;;;368.48;156.82;;;5.90;99.90;;;;;;5073948;28;20031;-77
2022/11/27 04:10:20;;;;;;;351.58;146.77;;;5.90;99.90;;;;;;5073286;28;20063;-77
2022/11/27 04:12:46;;;;;;;345.30;146.02;;;5.90;99.90;;;;;;5074027;28;20024;-78
2022/11/27 04:15:12;;;;;;;350.40;148.38;;;5.90;99.90;;;;;;5073341;28;20086;-75
2022/11/27 04:17:38;;;;;;;335.25;136.70;;;5.90;99.90;;;;;;5073162;28;20024;-77
2022/11/27 04:20:05;;;;;;;358.20;140.85;;;6.00;99.90;;;;;;5073816;28;20078;-77
2022/11/27 04:22:30;;;;;;;363.92;147.80;;;6.00;99.90;;;;;;5073499;28;20355;-77
2022/11/27 04:24:56;;;;;;;357.67;143.10;;;6.00;99.90;;;;;;5073567;28;20070;-76
2022/11/27 04:27:22;;;;;;;333.63;137.77;;;6.00;99.90;;;;;;5073389;28;20024;-77
2022/11/27 04:29:48;;;;;;;337.83;140.90;;;6.00;99.90;;;;;;5072779;28;20016;-76
2022/11/27 04:32:14;;;;;;;373.33;146.75;;;6.00;99.90;;;;;;5073422;28;20020;-76
2022/11/27 04:34:39;;;;;;;315.35;128.07;;;6.00;99.90;;;;;;5073524;28;20017;-76
2022/11/27 04:37:05;;;;;;;311.65;126.60;;;6.00;99.90;;;;;;5073175;28;20024;-77
2022/11/27 04:39:31;;;;;;;323.38;132.02;;;6.00;99.90;;;;;;5072109;28;20024;-76
2022/11/27 04:41:57;;;;;;;320.88;123.95;;;6.00;99.90;;;;;;5072885;28;20012;-76
2022/11/27 04:44:22;;;;;;;365.05;139.25;;;6.00;99.90;;;;;;5072735;28;20475;-75
2022/11/27 04:46:49;;;;;;;381.73;141.68;;;6.00;99.90;;;;;;5072977;28;20039;-75
2022/11/27 04:49:14;;;;;;;625.20;228.85;;;6.00;99.90;;;;;;5072836;28;20348;-77
2022/11/27 04:51:40;;;;;;;592.78;219.82;;;6.00;99.90;;;;;;5073094;28;20032;-76
2022/11/27 04:54:06;;;;;;;599.50;233.70;;;6.00;99.90;;;;;;5072920;28;20024;-77
2022/11/27 04:56:32;;;;;;;654.00;305.15;;;6.00;99.90;;;;;;5072491;28;20024;-77
2022/11/27 04:58:57;;;;;;;489.25;211.88;;;6.00;99.90;;;;;;5073130;28;20021;-76
2022/11/27 05:01:23;;;;;;;476.77;214.70;;;6.00;99.90;;;;;;5072613;28;20024;-77
2022/11/27 05:03:49;;;;;;;566.22;282.08;;;6.00;99.90;;;;;;5073057;28;20051;-76
2022/11/27 05:06:15;;;;;;;427.67;188.60;;;6.00;99.90;;;;;;5071691;28;20024;-77
2022/11/27 05:08:41;;;;;;;336.70;143.60;;;6.00;99.90;;;;;;5073000;28;20451;-76
2022/11/27 05:11:12;;;;;;;318.98;136.82;;;6.10;99.90;;;;;;5072794;28;20107;-76
2022/11/27 05:13:38;;;;;;;377.93;163.13;;;6.10;99.90;;;;;;5072798;28;20031;-76
2022/11/27 05:16:04;;;;;;;345.90;145.02;;;6.10;99.90;;;;;;5071301;28;20620;-77
2022/11/27 05:18:30;;;;;;;351.30;146.68;;;6.10;99.90;;;;;;5072599;28;20111;-78
2022/11/27 05:21:04;;;;;;;351.85;154.88;;;6.10;99.90;;;;;;5075405;28;20108;-76
2022/11/27 05:23:31;;;;;;;338.60;138.57;;;6.10;99.90;;;;;;5077046;28;20025;-77
2022/11/27 05:25:56;;;;;;;337.02;137.50;;;6.10;99.90;;;;;;5077004;28;20103;-77
2022/11/27 05:28:23;;;;;;;330.48;146.90;;;6.10;99.90;;;;;;5076337;28;20124;-77
2022/11/27 05:30:49;;;;;;;328.65;141.95;;;6.20;99.90;;;;;;5076524;28;20012;-76
2022/11/27 05:33:16;;;;;;;326.40;140.88;;;6.20;99.90;;;;;;5076369;28;20021;-76
2022/11/27 05:35:42;;;;;;;331.35;139.85;;;6.20;99.90;;;;;;5076461;28;20052;-77
2022/11/27 05:38:08;;;;;;;327.40;139.65;;;6.20;99.90;;;;;;5076278;28;20025;-77
2022/11/27 05:40:34;;;;;;;293.85;132.13;;;6.30;99.90;;;;;;5076461;28;20039;-75
2022/11/27 05:43:00;;;;;;;293.75;131.95;;;6.20;99.90;;;;;;5076283;28;20099;-77
2022/11/27 05:45:26;;;;;;;301.13;129.75;;;6.20;99.90;;;;;;5076814;28;20158;-76
2022/11/27 05:47:52;;;;;;;308.52;137.68;;;6.20;99.90;;;;;;5076550;28;20024;-76
2022/11/27 05:50:17;;;;;;;327.98;144.85;;;6.20;99.90;;;;;;5075848;28;20025;-76
2022/11/27 05:52:43;;;;;;;310.42;139.48;;;6.30;99.90;;;;;;5076852;28;20028;-77
2022/11/27 05:55:09;;;;;;;311.83;142.13;;;6.30;99.90;;;;;;5076076;28;20031;-77
2022/11/27 05:57:35;;;;;;;300.10;137.90;;;6.30;99.90;;;;;;5075302;28;20063;-77
2022/11/27 06:00:01;;;;;;;296.55;137.02;;;6.30;99.90;;;;;;5076640;28;20016;-78
2022/11/27 06:02:27;;;;;;;299.40;137.88;;;6.30;99.90;;;;;;5076230;28;20024;-76
2022/11/27 06:04:52;;;;;;;271.40;132.52;;;6.30;99.90;;;;;;5075574;28;20074;-76
2022/11/27 06:07:18;;;;;;;336.15;159.02;;;6.30;99.90;;;;;;5076048;28;20447;-77
2022/11/27 06:09:44;;;;;;;335.35;163.40;;;6.30;99.90;;;;;;5075792;28;20047;-76
2022/11/27 06:12:10;;;;;;;328.67;156.55;;;6.30;99.90;;;;;;5075605;28;20038;-77
2022/11/27 06:14:36;;;;;;;306.00;146.48;;;6.30;99.90;;;;;;5075598;28;20090;-76
2022/11/27 06:17:02;;;;;;;275.67;131.32;;;6.30;99.90;;;;;;5075664;28;20078;-76
2022/11/27 06:19:28;;;;;;;280.20;134.80;;;6.30;99.90;;;;;;5075522;28;20040;-76
2022/11/27 06:21:54;;;;;;;293.17;141.90;;;6.30;99.90;;;;;;5075786;28;20028;-76
2022/11/27 06:24:20;;;;;;;315.33;156.27;;;6.30;99.90;;;;;;5075434;28;20103;-76
2022/11/27 06:26:46;;;;;;;299.15;150.13;;;6.30;99.90;;;;;;5075436;28;20025;-78
2022/11/27 06:29:12;;;;;;;279.08;135.40;;;6.30;99.90;;;;;;5074954;28;20103;-78
2022/11/27 06:31:38;;;;;;;282.95;137.13;;;6.30;99.90;;;;;;5074650;28;20043;-77
2022/11/27 06:34:05;;;;;;;282.27;137.20;;;6.30;99.90;;;;;;5075159;28;20021;-76
2022/11/27 06:36:36;;;;;;;282.23;146.23;;;6.40;99.90;;;;;;5075445;28;20024;-76
2022/11/27 06:39:04;;;;;;;292.38;144.65;;;6.30;99.90;;;;;;5075040;28;20044;-76
2022/11/27 06:41:30;;;;;;;278.17;135.85;;;6.30;99.90;;;;;;5075552;28;20126;-75
2022/11/27 06:43:59;;;;;;;273.20;130.02;;;6.30;99.90;;;;;;5075147;28;20363;-76
2022/11/27 06:46:25;;;;;;;277.55;131.43;;;6.30;99.90;;;;;;5075127;28;20024;-76
2022/11/27 06:48:53;;;;;;;292.35;138.38;;;6.40;99.90;;;;;;5074613;28;20029;-76
2022/11/27 06:51:23;;;;;;;311.75;149.10;;;6.40;99.90;;;;;;5074545;28;20108;-75
2022/11/27 06:53:50;;;;;;;306.02;144.35;;;6.30;99.90;;;;;;5075218;28;20463;-76
2022/11/27 06:56:18;;;;;;;327.52;146.38;;;6.30;99.90;;;;;;5068058;28;20021;-76
2022/11/27 06:58:44;;;;;;;334.10;143.85;;;6.40;99.90;;;;;;5074770;28;20020;-76
2022/11/27 07:01:15;;;;;;;301.33;142.75;;;6.40;99.90;;;;;;5074731;28;20078;-77
2022/11/27 07:03:42;;;;;;;327.60;141.03;;;6.30;99.90;;;;;;5074281;28;20025;-77
2022/11/27 07:06:11;;;;;;;357.98;161.52;;;6.30;99.90;;;;;;5074576;28;20258;-77
2022/11/27 07:08:37;;;;;;;329.17;147.98;;;6.30;99.90;;;;;;5074341;28;20093;-77
2022/11/27 07:11:05;;;;;;;319.90;135.88;;;6.30;99.90;;;;;;5074827;28;20028;-76
2022/11/27 07:13:31;;;;;;;318.77;135.23;;;6.30;99.90;;;;;;5074825;28;20026;-77
2022/11/27 07:16:00;;;;;;;328.42;137.15;;;6.40;99.90;;;;;;5074293;28;20040;-76
2022/11/27 07:18:27;;;;;;;324.45;139.52;;;6.40;99.90;;;;;;5068892;28;20119;-76
2022/11/27 07:20:54;;;;;;;339.02;141.45;;;6.50;99.90;;;;;;5074097;28;20024;-76
2022/11/27 07:23:20;;;;;;;325.83;139.90;;;6.50;99.90;;;;;;5074872;28;20024;-77
2022/11/27 07:25:46;;;;;;;341.05;144.00;;;6.50;99.90;;;;;;5074341;28;20085;-77
2022/11/27 07:28:12;;;;;;;328.83;142.55;;;6.50;99.90;;;;;;5074371;28;20468;-77
2022/11/27 07:30:38;;;;;;;330.63;140.30;;;6.40;99.90;;;;;;5074712;28;20397;-77
2022/11/27 07:33:04;;;;;;;352.58;152.10;;;6.50;99.90;;;;;;5072944;28;20097;-77
2022/11/27 07:35:29;;;;;;;375.63;160.18;;;6.60;99.90;;;;;;5073774;28;20048;-76
2022/11/27 07:37:55;;;;;;;366.48;157.75;;;6.60;99.90;;;;;;5074072;28;20158;-76
2022/11/27 07:40:21;;;;;;;358.90;156.38;;;6.60;99.90;;;;;;5074401;28;20032;-78
2022/11/27 07:42:47;;;;;;;379.40;157.20;;;6.60;99.90;;;;;;5067206;28;20016;-76
2022/11/27 07:45:12;;;;;;;377.60;172.13;;;6.60;99.90;;;;;;5074037;28;20035;-76
2022/11/27 07:47:39;;;;;;;408.23;187.00;;;6.60;99.90;;;;;;5072049;28;20023;-78
2022/11/27 07:50:07;;;;;;;398.40;183.85;;;6.60;99.90;;;;;;5074656;28;20023;-77
2022/11/27 07:52:36;;;;;;;391.27;163.95;;;6.60;99.90;;;;;;5074540;28;20027;-77
2022/11/27 07:55:03;;;;;;;390.52;162.23;;;6.60;99.90;;;;;;5074615;28;20355;-78
2022/11/27 07:57:29;;;;;;;374.27;161.30;;;6.70;99.90;;;;;;5074276;28;20100;-76
2022/11/27 07:59:55;;;;;;;366.02;153.15;;;6.70;99.90;;;;;;5074386;28;20543;-78
2022/11/27 08:02:21;;;;;;;363.23;145.30;;;6.80;99.90;;;;;;5074283;28;20091;-77
2022/11/27 08:04:46;;;;;;;370.42;147.52;;;6.80;99.90;;;;;;5074343;28;20100;-76
2022/11/27 08:07:12;;;;;;;337.52;137.70;;;6.70;99.90;;;;;;5073894;28;20052;-76
2022/11/27 08:09:38;;;;;;;328.85;134.55;;;6.70;99.90;;;;;;5073875;28;20432;-78
2022/11/27 08:12:06;;;;;;;343.65;141.18;;;6.80;99.90;;;;;;5073650;28;20024;-78
2022/11/27 08:14:32;;;;;;;346.10;143.52;;;6.70;99.90;;;;;;5073752;28;20045;-79
2022/11/27 08:16:58;;;;;;;340.75;139.45;;;6.80;99.90;;;;;;5074053;28;20439;-76
2022/11/27 08:19:25;;;;;;;378.83;153.82;;;6.80;99.90;;;;;;5073594;28;20123;-76
2022/11/27 08:21:51;;;;;;;392.05;169.77;;;6.80;99.90;;;;;;5072611;28;20099;-78
2022/11/27 08:24:17;;;;;;;397.80;158.35;;;6.80;99.90;;;;;;5073399;28;20435;-77
2022/11/27 08:26:43;;;;;;;356.40;149.32;;;6.80;99.90;;;;;;5073290;28;20028;-77
2022/11/27 08:29:12;;;;;;;321.58;129.98;;;6.80;99.90;;;;;;5073421;28;20023;-76
2022/11/27 08:31:38;;;;;;;318.88;126.65;;;6.80;99.90;;;;;;5073286;28;20021;-75
2022/11/27 08:34:04;;;;;;;327.60;133.35;;;6.70;99.90;;;;;;5066137;28;20021;-77
2022/11/27 08:36:29;;;;;;;331.98;134.55;;;6.70;99.90;;;;;;5072157;28;20028;-77
2022/11/27 08:38:56;;;;;;;321.60;143.88;;;6.70;99.90;;;;;;5072345;28;20460;-81
2022/11/27 08:41:22;;;;;;;238.07;100.28;;;6.80;99.90;;;;;;5074017;28;20462;-76
2022/11/27 08:43:48;;;;;;;283.15;118.65;;;6.80;99.90;;;;;;5072416;28;20024;-77
2022/11/27 08:46:14;;;;;;;326.60;167.40;;;6.70;99.90;;;;;;5073830;28;20451;-77
2022/11/27 08:48:40;;;;;;;268.92;117.05;;;6.70;99.90;;;;;;5073747;28;20028;-77
2022/11/27 08:51:09;;;;;;;269.33;106.25;;;6.80;99.90;;;;;;5072346;28;20030;-77
2022/11/27 08:53:36;;;;;;;253.88;103.82;;;6.70;99.90;;;;;;5073210;28;20017;-77
2022/11/27 08:56:12;;;;;;;266.75;106.75;;;6.70;99.90;;;;;;5071766;28;20096;-77
2022/11/27 08:58:39;;;;;;;277.08;111.70;;;6.70;99.90;;;;;;5052688;28;20029;-77
2022/11/27 09:01:26;;;;;;;375.95;140.38;;;6.70;99.90;;;;;;5060280;28;20021;-78
2022/11/27 09:03:52;;;;;;;331.58;133.90;;;6.80;99.90;;;;;;5055728;28;20017;-78
2022/11/27 09:06:21;;;;;;;334.58;132.90;;;6.70;99.90;;;;;;5053129;28;20094;-79
2022/11/27 09:08:47;;;;;;;333.25;130.00;;;6.70;99.90;;;;;;5053211;28;20458;-78
2022/11/27 09:11:15;;;;;;;440.42;196.07;;;6.70;99.90;;;;;;5053568;28;20379;-78
2022/11/27 09:13:42;;;;;;;405.17;184.20;;;6.80;99.90;;;;;;5064552;28;20028;-78
2022/11/27 09:16:10;;;;;;;368.38;160.50;;;6.80;99.90;;;;;;5063534;28;20036;-79
2022/11/27 09:18:36;;;;;;;492.98;212.05;;;6.80;99.90;;;;;;5054237;28;20021;-78
2022/11/27 09:21:10;;;;;;;395.95;178.05;;;6.80;99.90;;;;;;5053288;28;20021;-78
2022/11/27 09:23:37;;;;;;;424.55;185.38;;;6.80;99.90;;;;;;5053529;28;20052;-78
2022/11/27 09:26:06;;;;;;;357.95;147.43;;;6.90;99.90;;;;;;5053254;28;20056;-77
2022/11/27 09:28:32;;;;;;;333.63;131.13;;;6.80;99.90;;;;;;5054230;28;20017;-78
2022/11/27 09:31:00;;;;;;;389.70;160.00;;;6.80;99.90;;;;;;5055619;28;20020;-78
2022/11/27 09:33:28;;;;;;;393.65;169.25;;;6.80;99.90;;;;;;5069090;28;20025;-76
2022/11/27 09:35:53;;;;;;;352.08;158.23;;;6.80;99.90;;;;;;5057250;28;20035;-77
2022/11/27 09:38:20;;;;;;;415.65;181.27;;;6.90;99.90;;;;;;5055356;28;20454;-77
2022/11/27 09:40:51;;;;;;;313.90;136.85;;;6.90;99.90;;;;;;5069814;28;20051;-77
2022/11/27 09:43:28;;;;;;;275.92;109.80;;;7.00;99.90;;;;;;5063719;28;20039;-77
2022/11/27 09:46:00;;;;;;;434.45;177.63;;;7.00;99.90;;;;;;5072118;28;20024;-76
2022/11/27 09:48:40;;;;;;;280.73;109.60;;;7.00;99.90;;;;;;5073067;28;20048;-77
2022/11/27 09:51:20;;;;;;;268.35;104.97;;;7.00;99.90;;;;;;5073155;28;20028;-77
2022/11/27 09:54:04;;;;;;;367.60;157.05;;;7.00;99.90;;;;;;5063051;28;20028;-76
2022/11/27 09:56:35;;;;;;;302.42;126.05;;;7.00;99.90;;;;;;5072053;28;20052;-77
2022/11/27 09:59:02;;;;;;;240.90;98.13;;;7.00;99.90;;;;;;5070915;28;20032;-76
2022/11/27 10:01:32;;;;;;;267.98;116.43;;;6.90;99.90;;;;;;5071022;28;20112;-77
2022/11/27 10:04:01;;;;;;;289.90;128.65;;;7.00;99.90;;;;;;5073141;28;20025;-76
2022/11/27 10:06:35;;;;;;;305.55;139.30;;;7.00;99.90;;;;;;5075575;28;20063;-77
2022/11/27 10:09:16;;;;;;;348.67;170.75;;;7.00;99.90;;;;;;5076519;28;20031;-77
2022/11/27 10:11:42;;;;;;;373.05;167.57;;;7.00;99.90;;;;;;5076044;28;20024;-77
2022/11/27 10:14:07;;;;;;;327.73;143.18;;;7.00;99.90;;;;;;5076258;28;20028;-77
2022/11/27 10:16:44;;;;;;;266.05;116.97;;;7.00;99.90;;;;;;5076729;28;20071;-77
2022/11/27 10:19:34;;;;;;;333.67;160.55;;;7.00;99.90;;;;;;5076308;28;20028;-77
2022/11/27 10:22:20;;;;;;;261.45;112.13;;;7.10;99.90;;;;;;5075977;28;20027;-77
2022/11/27 10:25:04;;;;;;;314.90;153.23;;;7.10;99.90;;;;;;5076471;28;20020;-76
2022/11/27 10:27:30;;;;;;;299.27;135.98;;;7.10;99.90;;;;;;5076267;28;20024;-77
2022/11/27 10:29:57;;;;;;;280.98;124.88;;;7.20;99.90;;;;;;5076268;28;20032;-76
2022/11/27 10:32:29;;;;;;;255.70;116.68;;;7.10;99.90;;;;;;5075921;28;20363;-77
2022/11/27 10:35:01;;;;;;;271.58;124.18;;;7.20;99.90;;;;;;5076253;28;20016;-77
2022/11/27 10:37:37;;;;;;;278.80;122.03;;;7.10;99.90;;;;;;5076023;28;20024;-77
2022/11/27 10:40:10;;;;;;;277.60;121.82;;;7.10;99.90;;;;;;5075963;28;20032;-77
2022/11/27 10:43:15;;;;;;;264.52;106.10;;;7.10;99.90;;;;;;5075741;28;20012;-77
2022/11/27 10:45:44;;;;;;;229.27;93.10;;;7.10;99.90;;;;;;5076088;28;20016;-77
2022/11/27 10:48:12;;;;;;;279.92;129.77;;;7.00;99.90;;;;;;5076095;28;20025;-76
2022/11/27 10:50:38;;;;;;;245.80;108.25;;;7.00;99.90;;;;;;5074849;28;20090;-76
2022/11/27 10:53:31;;;;;;;244.95;104.80;;;7.00;99.90;;;;;;5063486;28;20035;-78
2022/11/27 10:56:20;;;;;;;223.75;98.55;;;7.00;99.90;;;;;;5075508;28;20028;-77
2022/11/27 10:59:01;;;;;;;212.65;86.05;;;7.00;99.90;;;;;;5062326;28;20084;-77
2022/11/27 11:01:40;;;;;;;227.32;90.30;;;7.00;99.90;;;;;;5055158;28;20029;-77
2022/11/27 11:04:08;;;;;;;205.60;85.15;;;7.00;99.90;;;;;;5067767;28;20107;-77
2022/11/27 11:06:46;;;;;;;232.52;93.18;;;6.90;99.90;;;;;;5074649;28;20078;-76
2022/11/27 11:09:16;;;;;;;248.88;111.35;;;6.90;99.90;;;;;;5061887;28;20025;-77
2022/11/27 11:11:42;;;;;;;247.82;104.50;;;6.90;99.90;;;;;;5058418;28;20020;-77
2022/11/27 11:14:18;;;;;;;238.35;99.60;;;6.90;99.90;;;;;;5063866;28;20024;-77
2022/11/27 11:16:44;;;;;;;223.40;92.32;;;6.90;99.90;;;;;;5054619;28;20037;-78
2022/11/27 11:19:23;;;;;;;238.63;99.40;;;6.90;99.90;;;;;;5054762;28;20036;-77
2022/11/27 11:21:50;;;;;;;285.25;135.73;;;6.90;99.90;;;;;;5055272;28;20448;-77
2022/11/27 11:24:30;;;;;;;266.88;117.32;;;6.90;99.90;;;;;;5059718;28;20016;-78
2022/11/27 11:27:12;;;;;;;281.02;130.27;;;6.90;99.90;;;;;;5074708;28;20070;-77
2022/11/27 11:29:58;;;;;;;302.00;136.75;;;6.90;99.90;;;;;;5075307;28;20095;-77
2022/11/27 11:32:31;;;;;;;231.75;97.53;;;6.90;99.90;;;;;;5073914;28;20359;-77
2022/11/27 11:35:24;;;;;;;207.80;86.95;;;6.90;99.90;;;;;;5055364;28;20025;-77
2022/11/27 11:37:52;;;;;;;186.18;78.35;;;6.90;99.90;;;;;;5052496;28;20367;-77
2022/11/27 11:40:30;;;;;;;217.45;90.40;;;6.90;99.90;;;;;;5054689;28;20025;-78
2022/11/27 11:42:59;;;;;;;203.82;84.80;;;6.90;99.90;;;;;;5055759;28;20021;-78
2022/11/27 11:45:27;;;;;;;189.07;77.30;;;6.90;99.90;;;;;;5054510;28;20344;-79
2022/11/27 11:48:19;;;;;;;232.05;96.97;;;6.90;99.90;;;;;;5054550;28;20103;-76
2022/11/27 11:50:58;;;;;;;231.15;102.55;;;6.90;99.90;;;;;;5054479;28;20511;-76
2022/11/27 11:53:41;;;;;;;233.52;103.97;;;6.80;99.90;;;;;;5054356;28;20078;-76
2022/11/27 11:56:51;;;;;;;224.68;97.72;;;6.80;99.90;;;;;;5054734;28;20036;-76
2022/11/27 11:59:39;;;;;;;227.82;96.10;;;6.80;99.90;;;;;;5031904;28;20041;-77
2022/11/27 12:02:13;;;;;;;216.65;89.75;;;6.80;99.90;;;;;;5045955;28;20017;-79
2022/11/27 12:05:04;;;;;;;226.23;99.43;;;6.90;99.90;;;;;;5048393;28;20464;-78
2022/11/27 12:07:45;;;;;;;219.05;92.43;;;6.90;99.90;;;;;;5047590;28;20032;-79
2022/11/27 12:10:11;;;;;;;233.95;99.07;;;6.90;99.90;;;;;;5051254;28;20036;-77
2022/11/27 12:12:44;;;;;;;200.70;79.82;;;6.90;99.90;;;;;;5051420;28;20048;-77
2022/11/27 12:15:33;;;;;;;232.55;93.45;;;6.80;99.90;;;;;;5050723;28;20048;-76
2022/11/27 12:18:12;;;;;;;217.27;88.90;;;6.90;99.90;;;;;;5051625;28;20056;-77
2022/11/27 12:21:00;;;;;;;215.20;88.45;;;6.80;99.90;;;;;;5051607;28;20493;-77
2022/11/27 12:23:39;;;;;;;200.57;79.25;;;6.80;99.90;;;;;;5051582;28;20040;-77
2022/11/27 12:26:15;;;;;;;195.70;82.05;;;6.80;99.90;;;;;;5050998;28;20044;-76
2022/11/27 12:28:52;;;;;;;214.13;89.50;;;6.80;99.90;;;;;;5033720;28;20029;-77
2022/11/27 12:31:39;;;;;;;194.68;75.85;;;6.90;99.90;;;;;;5053852;28;20052;-77
2022/11/27 12:34:30;;;;;;;209.55;83.05;;;6.80;99.90;;;;;;5072068;28;20079;-78